createdAt,value
2018-04-23T00:02:02.891Z,18.00
2018-04-23T00:04:29.121Z,18.10
2018-04-23T00:06:55.351Z,18.10
2018-04-23T00:09:21.575Z,17.80
2018-04-23T00:11:47.811Z,17.80
2018-04-23T00:14:14.039Z,17.50
2018-04-23T00:16:40.309Z,17.40
2018-04-23T00:19:06.909Z,17.20
2018-04-23T00:21:33.153Z,17.30
2018-04-23T00:23:59.386Z,17.20
2018-04-23T00:26:25.966Z,17.10
2018-04-23T00:28:52.195Z,17.00
2018-04-23T00:31:18.393Z,17.00
2018-04-23T00:33:44.602Z,17.20
2018-04-23T00:36:10.849Z,17.20
2018-04-23T00:38:37.111Z,17.30
2018-04-23T00:41:03.321Z,17.40
2018-04-23T00:43:29.545Z,17.20
2018-04-23T00:45:55.757Z,17.30
2018-04-23T00:48:22.007Z,17.50
2018-04-23T00:50:48.247Z,17.50
2018-04-23T00:53:38.584Z,17.50
2018-04-23T00:56:04.807Z,17.50
2018-04-23T00:58:31.072Z,17.50
2018-04-23T01:00:57.285Z,17.60
2018-04-23T01:03:23.893Z,17.70
2018-04-23T01:05:50.113Z,17.70
2018-04-23T01:08:16.404Z,17.70
2018-04-23T01:10:42.656Z,17.60
2018-04-23T01:13:09.030Z,17.70
2018-04-23T01:15:35.277Z,17.70
2018-04-23T01:18:01.493Z,17.40
2018-04-23T01:20:27.699Z,17.40
2018-04-23T01:22:53.956Z,17.40
2018-04-23T01:25:20.166Z,17.10
2018-04-23T01:27:46.400Z,17.10
2018-04-23T01:30:12.615Z,17.30
2018-04-23T01:32:38.832Z,17.40
2018-04-23T01:35:05.060Z,17.50
2018-04-23T01:37:31.290Z,17.50
2018-04-23T01:39:57.522Z,17.60
2018-04-23T01:42:23.744Z,17.50
2018-04-23T01:44:49.968Z,17.40
2018-04-23T01:47:16.211Z,17.20
2018-04-23T01:49:42.442Z,17.10
2018-04-23T01:52:08.666Z,17.20
2018-04-23T01:54:34.905Z,17.30
2018-04-23T01:57:01.127Z,17.40
2018-04-23T01:59:27.355Z,17.60
2018-04-23T02:01:53.561Z,17.60
2018-04-23T02:04:19.811Z,17.50
2018-04-23T02:06:46.023Z,17.30
2018-04-23T02:09:12.316Z,17.30
2018-04-23T02:11:38.530Z,17.30
2018-04-23T02:14:04.754Z,17.40
2018-04-23T02:16:31.009Z,17.50
2018-04-23T02:18:57.236Z,17.80
2018-04-23T02:21:23.452Z,17.60
2018-04-23T02:23:49.739Z,17.50
2018-04-23T02:26:15.964Z,17.30
2018-04-23T02:28:42.226Z,17.30
2018-04-23T02:31:08.465Z,17.40
2018-04-23T02:33:34.707Z,17.50
2018-04-23T02:36:00.934Z,17.40
2018-04-23T02:38:27.177Z,17.30
2018-04-23T02:40:53.405Z,17.40
2018-04-23T02:43:19.650Z,17.30
2018-04-23T02:45:45.905Z,17.40
2018-04-23T02:48:12.143Z,17.40
2018-04-23T02:50:38.378Z,17.30
2018-04-23T02:53:04.628Z,17.20
2018-04-23T02:55:30.893Z,16.90
2018-04-23T02:57:57.107Z,16.70
2018-04-23T03:00:23.349Z,16.60
2018-04-23T03:02:49.597Z,16.70
2018-04-23T03:05:15.829Z,16.60
2018-04-23T03:07:42.036Z,16.70
2018-04-23T03:10:08.269Z,16.90
2018-04-23T03:12:34.491Z,16.80
2018-04-23T03:15:00.721Z,16.90
2018-04-23T03:17:26.935Z,17.00
2018-04-23T03:19:53.151Z,17.10
2018-04-23T03:22:19.381Z,17.10
2018-04-23T03:24:45.627Z,17.20
2018-04-23T03:27:11.829Z,17.20
2018-04-23T03:29:38.055Z,17.30
2018-04-23T03:32:04.253Z,17.30
2018-04-23T03:34:30.483Z,17.20
2018-04-23T03:36:57.101Z,17.20
2018-04-23T03:39:23.333Z,17.30
2018-04-23T03:41:49.570Z,17.30
2018-04-23T03:44:16.169Z,17.30
2018-04-23T03:46:42.402Z,17.30
2018-04-23T03:49:08.624Z,17.10
2018-04-23T03:51:34.848Z,17.20
2018-04-23T03:54:01.168Z,16.90
2018-04-23T03:56:27.388Z,16.90
2018-04-23T03:58:53.612Z,16.90
2018-04-23T04:01:19.850Z,17.00
2018-04-23T04:03:46.069Z,17.10
2018-04-23T04:06:12.323Z,16.90
2018-04-23T04:08:38.545Z,17.00
2018-04-23T04:11:04.751Z,17.10
2018-04-23T04:13:43.118Z,17.20
2018-04-23T04:16:21.512Z,17.20
2018-04-23T04:18:47.747Z,17.10
2018-04-23T04:21:13.996Z,17.00
2018-04-23T04:23:40.633Z,17.10
2018-04-23T04:26:06.895Z,17.00
2018-04-23T04:28:33.133Z,17.10
2018-04-23T04:30:59.393Z,17.10
2018-04-23T04:33:25.617Z,17.10
2018-04-23T04:35:51.852Z,17.20
2018-04-23T04:38:18.143Z,17.40
2018-04-23T04:40:45.257Z,17.40
2018-04-23T04:43:11.899Z,17.30
2018-04-23T04:45:38.161Z,17.30
2018-04-23T04:48:04.379Z,17.40
2018-04-23T04:50:30.584Z,17.40
2018-04-23T04:52:56.789Z,17.10
2018-04-23T04:55:23.019Z,17.30
2018-04-23T04:57:49.243Z,17.40
2018-04-23T05:00:15.512Z,17.30
2018-04-23T05:02:41.741Z,17.50
2018-04-23T05:05:07.983Z,17.50
2018-04-23T05:07:34.914Z,17.60
2018-04-23T05:10:01.177Z,17.70
2018-04-23T05:12:27.451Z,17.90
2018-04-23T05:14:53.661Z,17.90
2018-04-23T05:17:19.924Z,17.90
2018-04-23T05:19:46.188Z,17.80
2018-04-23T05:22:12.422Z,17.80
2018-04-23T05:24:38.634Z,17.80
2018-04-23T05:27:04.881Z,17.90
2018-04-23T05:29:31.130Z,18.00
2018-04-23T05:31:57.394Z,18.00
2018-04-23T05:34:23.628Z,18.00
2018-04-23T05:36:49.899Z,18.00
2018-04-23T05:39:16.124Z,18.00
2018-04-23T05:41:42.499Z,18.10
2018-04-23T05:44:09.138Z,18.10
2018-04-23T05:46:35.429Z,18.10
2018-04-23T05:49:01.729Z,17.90
2018-04-23T05:51:27.977Z,18.00
2018-04-23T05:53:54.189Z,18.20
2018-04-23T05:56:20.421Z,18.10
2018-04-23T05:58:46.640Z,18.20
2018-04-23T06:01:12.896Z,18.40
2018-04-23T06:03:39.100Z,18.40
2018-04-23T06:06:05.344Z,18.50
2018-04-23T06:08:31.588Z,18.50
2018-04-23T06:10:57.813Z,18.40
2018-04-23T06:13:24.035Z,18.40
2018-04-23T06:15:50.259Z,18.50
2018-04-23T06:18:16.503Z,18.30
2018-04-23T06:20:42.868Z,18.40
2018-04-23T06:23:09.114Z,18.60
2018-04-23T06:25:35.365Z,18.60
2018-04-23T06:28:01.625Z,18.70
2018-04-23T06:30:27.860Z,18.60
2018-04-23T06:32:54.110Z,18.70
2018-04-23T06:35:20.688Z,18.70
2018-04-23T06:37:46.964Z,18.70
2018-04-23T06:40:13.592Z,18.60
2018-04-23T06:42:39.778Z,18.50
2018-04-23T06:45:06.010Z,18.30
2018-04-23T06:47:32.270Z,18.00
2018-04-23T06:49:58.498Z,17.90
2018-04-23T06:52:24.715Z,17.80
2018-04-23T06:54:50.924Z,18.10
2018-04-23T06:57:17.183Z,18.10
2018-04-23T06:59:43.552Z,18.10
2018-04-23T07:02:09.780Z,18.20
2018-04-23T07:04:36.062Z,18.00
2018-04-23T07:07:02.372Z,18.00
2018-04-23T07:09:28.601Z,18.10
2018-04-23T07:11:54.855Z,18.20
2018-04-23T07:14:21.111Z,18.20
2018-04-23T07:16:47.384Z,18.30
2018-04-23T07:19:13.605Z,18.20
2018-04-23T07:21:40.350Z,18.30
2018-04-23T07:24:06.638Z,18.20
2018-04-23T07:26:32.898Z,18.40
2018-04-23T07:28:59.139Z,18.40
2018-04-23T07:31:25.362Z,18.40
2018-04-23T07:33:51.609Z,18.50
2018-04-23T07:36:17.831Z,18.80
2018-04-23T07:38:44.085Z,19.00
2018-04-23T07:41:10.325Z,19.00
2018-04-23T07:43:36.941Z,19.10
2018-04-23T07:46:03.203Z,19.10
2018-04-23T07:48:29.464Z,19.50
2018-04-23T07:50:55.719Z,19.60
2018-04-23T07:53:21.976Z,19.90
2018-04-23T07:55:48.150Z,19.80
2018-04-23T07:58:14.415Z,19.60
2018-04-23T08:00:40.636Z,19.70
2018-04-23T08:03:06.855Z,19.60
2018-04-23T08:05:33.063Z,19.50
2018-04-23T08:07:59.341Z,19.50
2018-04-23T08:10:25.990Z,19.80
2018-04-23T08:12:52.260Z,19.80
2018-04-23T08:15:18.511Z,19.90
2018-04-23T08:17:44.800Z,20.10
2018-04-23T08:20:11.043Z,20.00
2018-04-23T08:22:37.289Z,20.10
2018-04-23T08:25:03.538Z,20.30
2018-04-23T08:27:30.779Z,20.20
2018-04-23T08:29:57.027Z,20.20
2018-04-23T08:32:23.291Z,20.60
2018-04-23T08:34:49.550Z,20.90
2018-04-23T08:37:15.803Z,20.90
2018-04-23T08:39:42.032Z,20.90
2018-04-23T08:42:08.248Z,21.00
2018-04-23T08:44:34.524Z,21.20
2018-04-23T08:47:00.795Z,21.20
2018-04-23T08:49:27.023Z,21.20
2018-04-23T08:51:53.300Z,21.40
2018-04-23T08:54:19.618Z,21.80
2018-04-23T08:56:45.876Z,22.00
2018-04-23T08:59:12.120Z,22.40
2018-04-23T09:01:38.361Z,22.50
2018-04-23T09:04:04.611Z,22.50
2018-04-23T09:06:30.861Z,22.20
2018-04-23T09:08:57.107Z,22.40
2018-04-23T09:11:23.331Z,22.40
2018-04-23T09:13:49.981Z,22.50
2018-04-23T09:16:16.232Z,22.40
2018-04-23T09:18:42.466Z,22.60
2018-04-23T09:21:08.749Z,22.70
2018-04-23T09:23:35.375Z,23.20
2018-04-23T09:26:01.627Z,23.20
2018-04-23T09:28:27.848Z,23.40
2018-04-23T09:30:54.439Z,23.70
2018-04-23T09:33:20.676Z,23.70
2018-04-23T09:35:46.925Z,23.70
2018-04-23T09:38:13.175Z,23.80
2018-04-23T09:40:39.408Z,23.80
2018-04-23T09:43:05.683Z,23.90
2018-04-23T09:45:31.930Z,24.00
2018-04-23T09:47:58.173Z,24.10
2018-04-23T09:50:24.861Z,24.30
2018-04-23T09:52:51.075Z,24.30
2018-04-23T09:55:17.301Z,23.90
2018-04-23T09:57:43.533Z,23.60
2018-04-23T10:00:09.795Z,23.10
2018-04-23T10:02:36.036Z,23.00
2018-04-23T10:05:02.292Z,22.90
2018-04-23T10:07:28.911Z,22.60
2018-04-23T10:09:55.136Z,22.60
2018-04-23T10:12:21.358Z,22.40
2018-04-23T10:14:47.613Z,22.40
2018-04-23T10:17:14.201Z,22.50
2018-04-23T10:19:40.454Z,22.50
2018-04-23T10:22:06.666Z,22.60
2018-04-23T10:24:32.904Z,22.80
2018-04-23T10:26:59.177Z,23.10
2018-04-23T10:29:25.413Z,23.50
2018-04-23T10:31:51.628Z,24.10
2018-04-23T10:34:18.201Z,24.40
2018-04-23T10:36:44.428Z,24.40
2018-04-23T10:39:10.651Z,24.70
2018-04-23T10:41:36.895Z,25.20
2018-04-23T10:44:03.160Z,25.50
2018-04-23T10:46:29.775Z,26.30
2018-04-23T10:48:56.022Z,26.30
2018-04-23T10:51:22.234Z,26.20
2018-04-23T10:53:48.507Z,26.60
2018-04-23T10:56:14.734Z,26.90
2018-04-23T10:58:40.959Z,26.60
2018-04-23T11:01:07.215Z,26.10
2018-04-23T11:03:33.436Z,25.70
2018-04-23T11:05:59.704Z,26.00
2018-04-23T11:08:25.945Z,26.00
2018-04-23T11:10:52.209Z,25.90
2018-04-23T11:13:18.430Z,25.60
2018-04-23T11:15:44.681Z,25.50
2018-04-23T11:18:10.946Z,25.20
2018-04-23T11:20:37.209Z,24.70
2018-04-23T11:23:03.851Z,23.90
2018-04-23T11:25:30.495Z,23.50
2018-04-23T11:27:56.713Z,23.50
2018-04-23T11:30:23.312Z,23.00
2018-04-23T11:32:49.505Z,23.00
2018-04-23T11:35:15.782Z,23.10
2018-04-23T11:37:41.994Z,23.00
2018-04-23T11:40:10.193Z,23.00
2018-04-23T11:42:40.919Z,22.90
2018-04-23T11:45:07.218Z,22.90
2018-04-23T11:47:35.034Z,22.80
2018-04-23T11:50:01.546Z,22.80
2018-04-23T11:52:27.769Z,22.70
2018-04-23T11:54:54.024Z,22.60
2018-04-23T11:57:20.628Z,22.50
2018-04-23T11:59:46.889Z,22.50
2018-04-23T12:02:13.474Z,22.00
2018-04-23T12:04:39.752Z,22.00
2018-04-23T12:07:06.338Z,22.10
2018-04-23T12:09:32.588Z,22.20
2018-04-23T12:11:58.840Z,22.10
2018-04-23T12:14:25.494Z,21.60
2018-04-23T12:16:52.114Z,21.50
2018-04-23T12:19:18.714Z,21.60
2018-04-23T12:21:44.999Z,21.60
2018-04-23T12:24:11.596Z,21.40
2018-04-23T12:26:37.843Z,21.40
2018-04-23T12:29:04.069Z,21.40
2018-04-23T12:31:30.288Z,21.30
2018-04-23T12:36:29.533Z,21.10
2018-04-23T12:38:56.111Z,20.70
2018-04-23T12:41:22.373Z,20.60
2018-04-23T12:43:48.605Z,20.60
2018-04-23T12:46:14.887Z,20.60
2018-04-23T12:48:41.235Z,20.60
2018-04-23T12:51:07.619Z,20.30
2018-04-23T12:53:33.849Z,20.40
2018-04-23T12:56:00.102Z,20.50
2018-04-23T12:58:26.379Z,20.80
2018-04-23T13:00:52.651Z,21.10
2018-04-23T13:03:19.037Z,21.20
2018-04-23T13:05:45.327Z,21.30
2018-04-23T13:08:11.590Z,21.30
2018-04-23T13:10:37.915Z,21.10
2018-04-23T13:13:04.198Z,21.10
2018-04-23T13:15:30.486Z,20.80
2018-04-23T13:17:56.756Z,20.60
2018-04-23T13:20:22.983Z,20.50
2018-04-23T13:22:49.305Z,20.30
2018-04-23T13:25:15.599Z,20.10
2018-04-23T13:27:41.896Z,19.80
2018-04-23T13:30:08.159Z,19.50
2018-04-23T13:32:34.429Z,19.30
2018-04-23T13:35:00.700Z,19.00
2018-04-23T13:37:26.942Z,19.00
2018-04-23T13:39:53.184Z,18.60
2018-04-23T13:42:19.823Z,18.20
2018-04-23T13:44:46.038Z,18.20
2018-04-23T13:47:12.305Z,18.20
2018-04-23T13:49:38.561Z,18.10
2018-04-23T13:52:04.844Z,18.40
2018-04-23T13:54:31.452Z,17.80
2018-04-23T13:56:58.079Z,17.70
2018-04-23T13:59:24.385Z,17.70
2018-04-23T14:01:50.673Z,18.00
2018-04-23T14:04:16.911Z,18.20
2018-04-23T14:06:43.508Z,18.30
2018-04-23T14:09:09.753Z,18.30
2018-04-23T14:11:36.037Z,18.30
2018-04-23T14:14:02.287Z,18.20
2018-04-23T14:16:28.627Z,18.30
2018-04-23T14:18:54.882Z,18.30
2018-04-23T14:21:21.503Z,18.40
2018-04-23T14:23:47.761Z,18.40
2018-04-23T14:26:13.999Z,18.50
2018-04-23T14:28:40.251Z,18.50
2018-04-23T14:31:06.540Z,18.60
2018-04-23T14:33:33.194Z,18.70
2018-04-23T14:35:59.483Z,18.70
2018-04-23T14:38:25.703Z,18.70
2018-04-23T14:40:51.937Z,18.70
2018-04-23T14:43:18.204Z,18.70
2018-04-23T14:45:44.497Z,18.60
2018-04-23T14:48:10.758Z,18.50
2018-04-23T14:50:37.390Z,18.20
2018-04-23T14:53:04.186Z,18.10
2018-04-23T14:55:30.473Z,18.10
2018-04-23T14:57:56.761Z,18.10
2018-04-23T15:00:23.015Z,18.00
2018-04-23T15:02:49.651Z,17.80
2018-04-23T15:05:15.874Z,17.90
2018-04-23T15:07:42.136Z,17.90
2018-04-23T15:10:08.367Z,17.70
2018-04-23T15:12:34.607Z,17.70
2018-04-23T15:15:00.869Z,17.90
2018-04-23T15:17:27.130Z,17.80
2018-04-23T15:19:53.375Z,17.60
2018-04-23T15:22:19.597Z,17.70
2018-04-23T15:24:45.851Z,17.60
2018-04-23T15:27:12.129Z,17.90
2018-04-23T15:29:38.401Z,18.30
2018-04-23T15:32:04.664Z,18.40
2018-04-23T15:34:30.930Z,18.40
2018-04-23T15:36:57.564Z,18.60
2018-04-23T15:39:24.184Z,18.50
2018-04-23T15:41:50.400Z,18.50
2018-04-23T15:44:16.717Z,18.00
2018-04-23T15:46:42.986Z,17.90
2018-04-23T15:49:09.313Z,18.00
2018-04-23T15:51:35.925Z,17.60
2018-04-23T15:54:02.194Z,17.60
2018-04-23T15:56:28.526Z,17.70
2018-04-23T15:58:54.940Z,17.90
2018-04-23T16:01:21.139Z,18.30
2018-04-23T16:03:47.428Z,18.20
2018-04-23T16:06:13.869Z,18.20
2018-04-23T16:08:40.114Z,18.10
2018-04-23T16:11:06.328Z,18.40
2018-04-23T16:13:32.552Z,18.70
2018-04-23T16:15:58.844Z,18.70
2018-04-23T16:18:25.465Z,18.40
2018-04-23T16:20:51.717Z,18.40
2018-04-23T16:23:18.292Z,18.30
2018-04-23T16:25:44.523Z,18.30
2018-04-23T16:28:10.781Z,18.10
2018-04-23T16:30:37.052Z,18.30
2018-04-23T16:33:03.341Z,18.60
2018-04-23T16:35:29.621Z,18.70
2018-04-23T16:37:55.941Z,18.40
2018-04-23T16:40:22.176Z,18.20
2018-04-23T16:42:48.813Z,18.00
2018-04-23T16:45:15.087Z,17.80
2018-04-23T16:47:41.392Z,17.90
2018-04-23T16:50:07.641Z,18.00
2018-04-23T16:52:33.879Z,18.20
2018-04-23T16:55:00.106Z,18.30
2018-04-23T16:57:26.383Z,18.20
2018-04-23T16:59:52.645Z,18.10
2018-04-23T17:02:18.880Z,18.30
2018-04-23T17:04:45.113Z,18.40
2018-04-23T17:07:11.355Z,18.40
2018-04-23T17:09:37.623Z,18.30
2018-04-23T17:12:03.895Z,18.00
2018-04-23T17:14:30.150Z,17.70
2018-04-23T17:16:56.392Z,17.70
2018-04-23T17:19:23.007Z,17.40
2018-04-23T17:21:49.300Z,17.50
2018-04-23T17:24:15.555Z,17.60
2018-04-23T17:26:41.823Z,17.90
2018-04-23T17:29:08.444Z,18.10
2018-04-23T17:31:34.704Z,18.10
2018-04-23T17:34:01.016Z,17.90
2018-04-23T17:36:27.951Z,17.20
2018-04-23T17:38:54.278Z,17.20
2018-04-23T17:41:20.549Z,16.90
2018-04-23T17:43:48.328Z,17.00
2018-04-23T17:46:14.588Z,17.10
2018-04-23T17:48:40.934Z,17.10
2018-04-23T17:51:07.177Z,17.10
2018-04-23T17:53:34.448Z,16.90
2018-04-23T17:56:00.659Z,17.00
2018-04-23T17:58:27.299Z,17.10
2018-04-23T18:00:53.567Z,17.10
2018-04-23T18:03:19.811Z,17.00
2018-04-23T18:05:46.092Z,16.80
2018-04-23T18:08:12.419Z,16.70
2018-04-23T18:10:38.684Z,16.60
2018-04-23T18:13:05.057Z,16.70
2018-04-23T18:15:31.308Z,16.80
2018-04-23T18:17:57.901Z,16.60
2018-04-23T18:20:24.164Z,16.60
2018-04-23T18:22:50.537Z,16.50
2018-04-23T18:25:17.235Z,16.50
2018-04-23T18:27:43.907Z,16.50
2018-04-23T18:30:10.216Z,16.50
2018-04-23T18:32:36.481Z,16.60
2018-04-23T18:35:02.790Z,16.60
2018-04-23T18:37:29.069Z,16.60
2018-04-23T18:39:55.328Z,16.60
2018-04-23T18:42:21.962Z,16.40
2018-04-23T18:44:48.602Z,16.40
2018-04-23T18:47:15.246Z,16.40
2018-04-23T18:49:41.555Z,16.40
2018-04-23T18:52:07.970Z,16.30
2018-04-23T18:54:34.285Z,16.40
2018-04-23T18:57:00.545Z,16.40
2018-04-23T18:59:26.834Z,16.60
2018-04-23T19:01:53.131Z,16.70
2018-04-23T19:04:19.457Z,16.80
2018-04-23T19:06:45.775Z,17.00
2018-04-23T19:09:12.058Z,16.90
2018-04-23T19:11:38.339Z,16.90
2018-04-23T19:14:05.040Z,17.10
2018-04-23T19:16:31.314Z,17.00
2018-04-23T19:18:57.539Z,16.90
2018-04-23T19:21:23.824Z,16.80
2018-04-23T19:23:51.050Z,16.70
2018-04-23T19:26:17.327Z,17.00
2018-04-23T19:28:43.591Z,17.10
2018-04-23T19:31:09.886Z,17.10
2018-04-23T19:33:36.112Z,17.10
2018-04-23T19:36:02.443Z,17.20
2018-04-23T19:38:28.753Z,17.30
2018-04-23T19:40:55.100Z,17.30
2018-04-23T19:43:21.348Z,17.30
2018-04-23T19:45:48.036Z,17.30
2018-04-23T19:48:15.089Z,17.30
2018-04-23T19:50:41.356Z,17.20
2018-04-23T19:53:07.959Z,17.10
2018-04-23T19:55:34.234Z,17.10
2018-04-23T19:58:00.490Z,16.90
2018-04-23T20:00:27.408Z,16.80
2018-04-23T20:02:53.591Z,16.80
2018-04-23T20:05:19.816Z,16.80
2018-04-23T20:07:46.083Z,17.00
2018-04-23T20:10:12.731Z,16.90
2018-04-23T20:12:39.005Z,16.90
2018-04-23T20:15:05.311Z,16.70
2018-04-23T20:17:31.573Z,16.60
2018-04-23T20:19:57.856Z,16.70
2018-04-23T20:22:24.234Z,16.60
2018-04-23T20:24:50.500Z,16.60
2018-04-23T20:27:17.205Z,16.60
2018-04-23T20:29:43.442Z,16.60
2018-04-23T20:32:09.738Z,16.60
2018-04-23T20:34:35.976Z,16.70
2018-04-23T20:37:02.294Z,16.80
2018-04-23T20:39:28.519Z,16.90
2018-04-23T20:41:54.731Z,16.90
2018-04-23T20:44:21.063Z,16.70
2018-04-23T20:46:47.319Z,16.80
2018-04-23T20:49:13.526Z,16.70
2018-04-23T20:51:39.765Z,16.80
2018-04-23T20:54:06.001Z,16.60
2018-04-23T20:56:32.307Z,16.50
2018-04-23T20:58:58.512Z,16.70
2018-04-23T21:01:25.208Z,16.50
2018-04-23T21:03:51.459Z,16.50
2018-04-23T21:06:17.719Z,16.60
2018-04-23T21:08:43.958Z,16.50
2018-04-23T21:11:11.107Z,16.50
2018-04-23T21:13:37.357Z,16.50
2018-04-23T21:16:03.632Z,16.20
2018-04-23T21:18:30.235Z,16.30
2018-04-23T21:20:56.498Z,16.30
2018-04-23T21:23:22.795Z,16.10
2018-04-23T21:25:49.006Z,15.90
2018-04-23T21:28:15.327Z,15.60
2018-04-23T21:30:41.552Z,15.80
2018-04-23T21:33:07.763Z,15.80
2018-04-23T21:35:34.025Z,15.70
2018-04-23T21:38:00.269Z,15.60
2018-04-23T21:40:26.522Z,15.50
2018-04-23T21:42:52.789Z,15.60
2018-04-23T21:45:19.013Z,15.80
2018-04-23T21:47:45.299Z,15.90
2018-04-23T21:50:11.510Z,16.00
2018-04-23T21:52:37.750Z,15.80
2018-04-23T21:55:04.060Z,15.60
2018-04-23T21:57:30.274Z,15.40
2018-04-23T21:59:56.507Z,15.50
2018-04-23T22:02:22.749Z,15.70
2018-04-23T22:04:48.972Z,15.50
2018-04-23T22:07:15.196Z,15.30
2018-04-23T22:09:41.477Z,15.20
2018-04-23T22:12:07.736Z,15.10
2018-04-23T22:14:33.957Z,15.00
2018-04-23T22:17:01.237Z,14.90
2018-04-23T22:19:27.457Z,14.80
2018-04-23T22:21:53.719Z,14.90
2018-04-23T22:24:20.034Z,15.10
2018-04-23T22:26:46.255Z,15.10
2018-04-23T22:29:12.501Z,15.10
2018-04-23T22:31:38.723Z,15.10
2018-04-23T22:34:04.964Z,15.00
2018-04-23T22:36:31.218Z,15.20
2018-04-23T22:38:57.419Z,15.10
2018-04-23T22:41:23.649Z,15.00
2018-04-23T22:43:49.891Z,15.10
2018-04-23T22:46:16.124Z,15.00
2018-04-23T22:48:42.374Z,15.00
2018-04-23T22:51:08.615Z,15.00
2018-04-23T22:53:34.869Z,14.70
2018-04-23T22:56:01.092Z,14.60
2018-04-23T22:58:27.433Z,14.90
2018-04-23T23:00:53.575Z,14.90
2018-04-23T23:03:19.833Z,15.00
2018-04-23T23:05:46.447Z,15.20
2018-04-23T23:08:12.664Z,15.20
2018-04-23T23:10:38.912Z,15.10
2018-04-23T23:13:05.492Z,14.90
2018-04-23T23:15:31.738Z,15.00
2018-04-23T23:17:58.018Z,15.20
2018-04-23T23:20:24.605Z,15.10
2018-04-23T23:22:50.831Z,15.10
2018-04-23T23:25:17.061Z,15.20
2018-04-23T23:27:43.892Z,15.20
2018-04-23T23:30:10.157Z,15.20
2018-04-23T23:32:36.380Z,15.20
2018-04-23T23:35:02.743Z,15.30
2018-04-23T23:37:28.944Z,15.10
2018-04-23T23:39:55.145Z,15.00
2018-04-23T23:42:21.990Z,15.20
2018-04-23T23:44:48.345Z,15.00
2018-04-23T23:47:14.565Z,15.00
2018-04-23T23:49:40.792Z,15.10
2018-04-23T23:52:06.995Z,14.90
2018-04-23T23:54:33.205Z,15.10
2018-04-23T23:56:59.441Z,15.30
2018-04-23T23:59:25.684Z,15.20
